Terminal Aerodrome Forecast
Issued by NWS Wilmington, OH

Current Version | Previous Version | Graphics & Text | Print | Product List | Glossary On
Versions: 1 2 3 4 5 6 7 8 9 10 11 12 13 14 15 16 17 18 19 20 21 22 23 24 25 26
000
FTUS41 KILN 011600 AAC
TAFDAY
TAF AMD
KDAY 011612Z 0116/0212 10004KT 2SM BR OVC005
     FM011700 09004KT 4SM BR BKN005
     FM011900 08005KT P6SM FEW005
     FM012300 11004KT P6SM SKC
     FM020900 13004KT P6SM SCT200=

USA.gov is the U.S. government's official web portal to all federal, state and local government web resources and services.